Time;durP1;ratioP1;P1;durP2;ratioP2;P2;SDS_P1;SDS_P2;PMS_P1;PMS_P2;Temp;Humidity;BMP_temperature;BMP_pressure;BME280_temperature;BME280_humidity;BME280_pressure;Samples;Min_cycle;Max_cycle;Signal;HPM_P1;HPM_P2
2021/10/20 04:02:50;;;;;;;8.80;2.30;;;;;;;22.20;40.05;99745.28;5957802;23;20934;-67
2021/10/20 04:05:19;;;;;;;10.13;2.50;;;;;;;22.25;39.97;99737.25;4875312;29;20393;-72
2021/10/20 04:07:47;;;;;;;10.88;2.90;;;;;;;22.23;39.78;99733.31;4862751;29;20033;-69
2021/10/20 04:10:25;;;;;;;9.75;2.55;;;;;;;22.11;39.64;99729.88;4862720;29;20038;-70
2021/10/20 04:12:51;;;;;;;13.95;3.38;;;;;;;22.13;40.03;99730.22;4862950;29;20094;-70
2021/10/20 04:15:19;;;;;;;8.50;2.28;;;;;;;22.22;39.85;99724.19;4862791;29;20385;-70
2021/10/20 04:17:45;;;;;;;12.38;2.55;;;;;;;22.23;39.87;99717.41;4862834;29;20025;-69
2021/10/20 04:20:14;;;;;;;11.55;2.85;;;;;;;22.21;40.02;99716.25;4862830;29;20038;-70
2021/10/20 04:22:40;;;;;;;11.68;2.67;;;;;;;22.24;39.81;99721.00;4862342;29;20033;-69
2021/10/20 04:25:06;;;;;;;6.90;2.15;;;;;;;22.25;39.78;99714.22;4862650;29;20059;-69
2021/10/20 04:27:33;;;;;;;11.88;2.55;;;;;;;22.20;39.70;99706.31;4862040;29;20384;-70
2021/10/20 04:29:59;;;;;;;8.30;2.25;;;;;;;22.23;39.68;99705.50;4862116;29;20060;-70
2021/10/20 04:32:28;;;;;;;14.55;2.88;;;;;;;22.19;39.80;99690.84;4862202;29;20045;-69
2021/10/20 04:34:54;;;;;;;12.17;3.33;;;;;;;22.14;40.03;99701.25;4862049;29;20026;-69
2021/10/20 04:37:26;;;;;;;8.02;2.25;;;;;;;22.09;39.71;99701.69;4862481;29;20047;-70
2021/10/20 04:39:53;;;;;;;12.10;3.00;;;;;;;22.02;39.83;99690.63;4862413;29;20026;-70
2021/10/20 04:42:20;;;;;;;16.95;3.15;;;;;;;22.10;39.66;99685.78;4862275;29;20038;-70
2021/10/20 04:44:46;;;;;;;12.30;4.30;;;;;;;22.08;39.78;99682.63;4862277;29;20029;-70
2021/10/20 04:47:12;;;;;;;15.57;3.40;;;;;;;21.97;39.98;99679.94;4862114;29;20041;-70
2021/10/20 04:49:37;;;;;;;9.93;3.05;;;;;;;22.06;39.77;99683.00;4862164;29;20040;-70
2021/10/20 04:52:03;;;;;;;11.50;3.45;;;;;;;22.01;39.82;99674.34;4862088;29;20033;-70
2021/10/20 04:54:29;;;;;;;11.02;2.67;;;;;;;21.95;40.03;99668.44;4862070;29;20037;-70
2021/10/20 04:56:54;;;;;;;10.73;2.75;;;;;;;21.90;40.09;99668.91;4862009;29;20038;-70
2021/10/20 04:59:20;;;;;;;12.60;2.83;;;;;;;21.94;40.04;99663.31;4862281;29;20086;-70
2021/10/20 05:01:45;;;;;;;20.85;3.88;;;;;;;21.89;40.02;99665.34;4862259;29;20414;-73
2021/10/20 05:04:11;;;;;;;13.55;3.58;;;;;;;21.88;39.94;99663.75;4861731;29;20128;-70
2021/10/20 05:06:36;;;;;;;9.63;2.60;;;;;;;21.92;39.83;99663.72;4861742;29;20032;-70
2021/10/20 05:09:02;;;;;;;7.10;2.58;;;;;;;21.89;39.80;99654.22;4861919;29;20040;-69
2021/10/20 05:11:28;;;;;;;10.27;2.78;;;;;;;21.88;40.08;99651.84;4861826;29;20524;-69
2021/10/20 05:13:53;;;;;;;11.30;4.13;;;;;;;21.84;40.16;99659.47;4861421;29;20385;-69
2021/10/20 05:16:19;;;;;;;16.83;4.63;;;;;;;21.77;40.30;99657.56;4861282;29;20030;-70
2021/10/20 05:18:44;;;;;;;20.05;3.75;;;;;;;21.86;40.30;99657.03;4861112;29;20042;-72
2021/10/20 05:21:10;;;;;;;10.48;3.08;;;;;;;21.86;40.24;99657.03;4861230;29;20034;-70
2021/10/20 05:23:35;;;;;;;10.93;2.80;;;;;;;21.88;40.03;99658.19;4875526;29;20025;-70
2021/10/20 05:26:01;;;;;;;10.50;2.65;;;;;;;21.92;40.09;99647.03;4861486;29;20025;-70
2021/10/20 05:28:26;;;;;;;11.18;2.70;;;;;;;21.94;40.41;99649.41;4861090;29;20400;-70
2021/10/20 05:30:52;;;;;;;10.48;3.10;;;;;;;21.96;40.17;99642.22;4861419;29;20133;-71
2021/10/20 05:33:18;;;;;;;10.77;3.53;;;;;;;22.04;39.82;99638.13;4860989;29;20049;-70
2021/10/20 05:35:43;;;;;;;12.50;3.50;;;;;;;22.03;39.91;99644.91;4861717;29;20510;-70
2021/10/20 05:38:09;;;;;;;9.18;2.70;;;;;;;21.95;40.31;99637.06;4861394;29;20033;-69
2021/10/20 05:40:35;;;;;;;13.35;2.95;;;;;;;21.99;40.08;99630.28;4860119;29;20109;-70
2021/10/20 05:43:01;;;;;;;13.15;2.85;;;;;;;22.03;40.02;99628.22;4861326;29;20037;-70
2021/10/20 05:45:28;;;;;;;11.40;3.03;;;;;;;21.95;40.17;99623.97;4861094;29;20038;-76
2021/10/20 05:47:53;;;;;;;11.70;2.83;;;;;;;21.96;40.06;99608.06;4860624;29;20033;-70
2021/10/20 05:50:19;;;;;;;9.63;3.60;;;;;;;21.84;40.44;99609.41;4861078;29;20400;-70
2021/10/20 05:52:45;;;;;;;11.20;3.13;;;;;;;21.81;40.63;99608.22;4861163;29;20034;-70
2021/10/20 05:55:12;;;;;;;11.52;3.35;;;;;;;21.95;40.60;99598.13;4861297;29;20125;-70
2021/10/20 05:57:39;;;;;;;15.80;4.00;;;;;;;21.89;40.36;99597.81;4860973;29;20476;-70
2021/10/20 06:00:07;;;;;;;12.55;3.00;;;;;;;21.94;40.37;99593.78;4860945;29;20033;-70
2021/10/20 06:02:33;;;;;;;18.30;3.92;;;;;;;21.97;40.25;99585.38;4860792;29;20106;-70
2021/10/20 06:04:58;;;;;;;12.40;2.65;;;;;;;21.99;40.39;99582.19;4860878;29;20440;-70
2021/10/20 06:07:24;;;;;;;11.18;3.10;;;;;;;21.91;40.38;99586.25;4860734;29;20039;-75
2021/10/20 06:09:50;;;;;;;12.20;4.10;;;;;;;21.89;40.75;99590.25;4860793;29;20084;-69
2021/10/20 06:12:15;;;;;;;11.02;2.92;;;;;;;21.97;40.52;99590.94;4860758;29;20085;-70
2021/10/20 06:14:41;;;;;;;14.48;4.00;;;;;;;21.97;40.46;99584.59;4875041;29;20112;-70
2021/10/20 06:17:06;;;;;;;12.38;3.22;;;;;;;21.92;40.61;99574.75;4860935;29;20480;-70
2021/10/20 06:19:32;;;;;;;15.25;4.20;;;;;;;21.92;40.79;99576.75;4860726;29;20499;-70
2021/10/20 06:21:58;;;;;;;10.95;2.88;;;;;;;22.00;40.36;99576.22;4860885;29;20037;-70
2021/10/20 06:24:24;;;;;;;10.45;3.13;;;;;;;21.89;40.86;99567.22;4860631;29;20390;-69
2021/10/20 06:26:50;;;;;;;18.98;3.72;;;;;;;21.80;40.98;99561.38;4860548;29;20105;-70
2021/10/20 06:29:17;;;;;;;11.50;4.03;;;;;;;21.80;40.88;99553.84;4860765;29;20057;-70
2021/10/20 06:31:43;;;;;;;11.43;2.75;;;;;;;21.77;40.86;99551.13;4860529;29;20484;-70
2021/10/20 06:34:08;;;;;;;13.85;3.13;;;;;;;21.75;41.17;99548.72;4860512;29;20032;-69
2021/10/20 06:36:36;;;;;;;13.82;3.70;;;;;;;21.75;40.95;99542.38;4860521;29;20033;-69
2021/10/20 06:39:03;;;;;;;15.50;3.35;;;;;;;21.76;41.24;99538.41;4860383;29;20098;-70
2021/10/20 06:41:28;;;;;;;11.32;3.33;;;;;;;21.76;41.19;99541.97;4874656;29;20480;-69
2021/10/20 06:43:54;;;;;;;20.92;3.78;;;;;;;21.82;40.99;99542.28;4860303;29;20110;-69
2021/10/20 06:46:20;;;;;;;10.75;3.33;;;;;;;21.85;41.04;99531.13;4860322;29;20034;-70
2021/10/20 06:48:46;;;;;;;14.73;3.78;;;;;;;21.71;41.35;99513.84;4860249;29;20433;-71
2021/10/20 06:51:11;;;;;;;11.13;3.22;;;;;;;21.66;41.58;99533.78;4860412;29;20408;-69
2021/10/20 06:53:38;;;;;;;10.57;4.38;;;;;;;21.73;41.21;99536.47;4860280;29;20125;-70
2021/10/20 06:56:05;;;;;;;11.10;3.55;;;;;;;21.76;41.06;99538.41;4860263;29;20086;-69
2021/10/20 06:58:31;;;;;;;13.90;3.67;;;;;;;21.76;41.17;99533.63;4861243;29;20068;-74
2021/10/20 07:00:56;;;;;;;11.85;2.97;;;;;;;21.76;41.06;99530.06;4864080;29;20461;-73
2021/10/20 07:03:22;;;;;;;16.67;3.10;;;;;;;21.60;41.64;99541.78;4864038;29;20077;-83
2021/10/20 07:05:48;;;;;;;15.43;2.85;;;;;;;21.68;41.36;99537.69;4863977;29;20550;-74
2021/10/20 07:08:14;;;;;;;13.82;3.58;;;;;;;21.68;41.06;99539.69;4863866;29;20374;-70
2021/10/20 07:10:40;;;;;;;10.55;2.88;;;;;;;21.76;41.31;99530.84;4863879;29;20040;-69
2021/10/20 07:13:06;;;;;;;9.63;3.03;;;;;;;21.75;41.46;99529.25;4863830;29;20113;-72
2021/10/20 07:15:32;;;;;;;11.95;3.40;;;;;;;21.72;41.39;99526.56;4863848;29;20057;-70
2021/10/20 07:17:57;;;;;;;13.48;3.95;;;;;;;21.74;41.35;99524.13;4863833;29;20068;-69
2021/10/20 07:20:23;;;;;;;13.18;3.72;;;;;;;21.76;41.44;99521.72;4863780;29;20139;-70
2021/10/20 07:22:49;;;;;;;12.30;3.63;;;;;;;21.86;41.27;99515.25;4862165;29;20104;-69
2021/10/20 07:25:17;;;;;;;14.38;3.38;;;;;;;21.88;41.06;99515.59;4862940;29;20037;-70
2021/10/20 07:27:43;;;;;;;11.60;2.83;;;;;;;21.73;41.47;99517.00;4863508;29;20093;-70
2021/10/20 07:30:11;;;;;;;10.23;3.20;;;;;;;21.74;41.42;99519.34;4863486;29;20121;-70
2021/10/20 07:32:39;;;;;;;14.52;3.50;;;;;;;21.71;41.53;99516.63;4863863;29;20040;-69
2021/10/20 07:35:06;;;;;;;10.52;3.28;;;;;;;21.94;40.99;99515.91;4863729;29;20116;-69
2021/10/20 07:37:31;;;;;;;12.00;3.55;;;;;;;21.89;41.13;99515.16;4863452;29;20070;-71
2021/10/20 07:39:57;;;;;;;13.15;3.22;;;;;;;21.93;40.97;99517.91;4863374;29;20034;-72
2021/10/20 07:42:23;;;;;;;16.80;3.55;;;;;;;21.90;41.16;99515.94;4863569;29;20034;-75
2021/10/20 07:44:48;;;;;;;17.23;4.35;;;;;;;21.86;41.09;99516.03;4863364;29;20101;-69
2021/10/20 07:47:20;;;;;;;23.30;4.45;;;;;;;21.95;41.01;99507.16;4863273;29;20121;-75
2021/10/20 07:49:47;;;;;;;14.60;4.50;;;;;;;21.95;41.12;99514.72;4863287;29;20120;-75
2021/10/20 07:52:12;;;;;;;16.92;4.18;;;;;;;22.00;41.12;99515.03;4863304;29;20041;-75
2021/10/20 07:54:38;;;;;;;18.33;5.15;;;;;;;22.02;40.93;99509.03;4861730;29;20423;-72
2021/10/20 07:57:04;;;;;;;16.25;3.67;;;;;;;22.05;40.97;99514.53;4868651;29;20066;-70
2021/10/20 07:59:30;;;;;;;13.73;4.80;;;;;;;22.01;41.14;99505.47;4862737;29;20504;-70
2021/10/20 08:01:55;;;;;;;13.80;3.97;;;;;;;22.06;41.23;99506.97;4862634;29;20030;-70
2021/10/20 08:04:21;;;;;;;15.18;3.40;;;;;;;22.17;40.93;99512.44;4862570;29;20064;-74
2021/10/20 08:06:47;;;;;;;14.07;3.38;;;;;;;21.99;41.48;99507.91;4862923;29;20082;-70
2021/10/20 08:09:12;;;;;;;11.48;4.32;;;;;;;22.15;41.27;99494.16;4862802;29;20040;-70
2021/10/20 08:11:38;;;;;;;17.17;4.00;;;;;;;22.11;41.14;99487.84;4862936;29;20045;-70
2021/10/20 08:14:04;;;;;;;22.67;5.00;;;;;;;22.14;41.50;99503.72;4862920;29;20033;-72
2021/10/20 08:16:30;;;;;;;18.13;3.80;;;;;;;22.21;41.18;99502.81;4862455;29;20029;-71
2021/10/20 08:18:56;;;;;;;12.02;3.25;;;;;;;22.10;41.42;99513.31;4862527;29;20034;-70
2021/10/20 08:21:21;;;;;;;15.63;3.70;;;;;;;22.28;41.01;99504.69;4862427;29;20033;-70
2021/10/20 08:23:47;;;;;;;10.73;3.67;;;;;;;22.30;41.11;99507.84;4862326;29;20026;-74
2021/10/20 08:26:13;;;;;;;8.82;3.00;;;;;;;22.44;40.85;99513.16;4862402;29;20056;-69
2021/10/20 08:28:39;;;;;;;21.35;4.13;;;;;;;22.46;41.10;99519.09;4862130;29;20637;-68
2021/10/20 08:31:04;;;;;;;18.58;3.80;;;;;;;22.41;41.00;99519.59;4862128;29;20027;-75
2021/10/20 08:33:30;;;;;;;28.05;5.35;;;;;;;22.41;40.90;99516.81;4876400;29;20069;-74
2021/10/20 08:35:56;;;;;;;15.48;4.15;;;;;;;22.40;40.95;99521.59;4862485;29;20057;-75
2021/10/20 08:38:21;;;;;;;19.77;3.50;;;;;;;22.39;41.32;99527.56;4862117;29;20064;-74
2021/10/20 08:40:47;;;;;;;13.73;4.28;;;;;;;22.42;40.98;99523.94;4862314;29;20032;-73
2021/10/20 08:43:15;;;;;;;13.80;4.13;;;;;;;22.49;40.88;99526.59;4859500;29;20188;-69
2021/10/20 08:45:41;;;;;;;20.40;3.88;;;;;;;22.51;41.08;99531.75;4862048;29;20552;-74
2021/10/20 08:48:07;;;;;;;16.75;4.93;;;;;;;22.48;40.79;99527.81;4861813;29;20025;-74
2021/10/20 08:50:34;;;;;;;10.05;3.22;;;;;;;22.46;41.08;99527.47;4861875;29;20064;-74
2021/10/20 08:53:00;;;;;;;14.32;3.72;;;;;;;22.58;40.77;99528.84;4861898;29;20036;-73
2021/10/20 08:55:27;;;;;;;16.73;4.28;;;;;;;22.54;41.06;99525.34;4861806;29;20021;-74
2021/10/20 08:57:54;;;;;;;14.82;3.50;;;;;;;22.56;40.70;99529.28;4861730;29;20093;-75
2021/10/20 09:00:21;;;;;;;13.60;3.65;;;;;;;22.52;40.66;99527.75;4861661;29;20109;-69
2021/10/20 09:02:47;;;;;;;8.38;2.88;;;;;;;22.49;40.76;99529.38;4860318;29;20062;-74
2021/10/20 09:05:20;;;;;;;14.27;3.63;;;;;;;22.47;40.86;99526.25;4860435;29;20094;-71
2021/10/20 09:07:48;;;;;;;13.57;3.55;;;;;;;22.50;40.86;99530.97;4861447;29;20032;-69
2021/10/20 09:10:15;;;;;;;13.23;3.28;;;;;;;22.48;41.01;99530.59;4859011;29;20036;-70
2021/10/20 09:12:41;;;;;;;12.57;3.42;;;;;;;22.41;41.03;99523.16;4861480;29;20021;-70
2021/10/20 09:15:10;;;;;;;13.60;3.60;;;;;;;22.46;41.04;99523.88;4861454;29;20516;-69
2021/10/20 09:17:49;;;;;;;15.65;4.28;;;;;;;22.39;41.18;99533.13;4859034;29;20495;-68
2021/10/20 09:20:36;;;;;;;13.05;4.55;;;;;;;22.45;41.06;99531.47;4856395;29;20117;-69
2021/10/20 09:23:11;;;;;;;10.00;3.47;;;;;;;22.46;41.10;99524.69;4856814;29;20026;-69
2021/10/20 09:25:42;;;;;;;16.58;4.32;;;;;;;22.60;40.91;99530.00;4856659;29;20022;-68
2021/10/20 09:28:32;;;;;;;13.65;3.67;;;;;;;22.40;41.18;99534.72;4861075;29;20064;-69
2021/10/20 09:31:02;;;;;;;14.25;4.00;;;;;;;22.13;41.71;99543.84;4859225;29;20025;-69
2021/10/20 09:33:33;;;;;;;;;;;;;;;22.41;41.12;99542.63;4861767;29;20077;-71
2021/10/20 09:36:02;;;;;;;;;;;;;;;22.16;41.59;99547.81;4861446;29;19927;-71
2021/10/20 09:38:33;;;;;;;16.08;3.75;;;;;;;22.32;41.30;99547.16;4861031;29;20414;-74
2021/10/20 09:41:06;;;;;;;14.88;4.10;;;;;;;22.48;41.05;99549.31;4859022;29;20041;-68
2021/10/20 09:43:38;;;;;;;10.95;3.53;;;;;;;22.43;41.09;99550.56;4860965;29;20029;-70
2021/10/20 09:46:04;;;;;;;11.15;3.67;;;;;;;22.39;41.17;99545.06;4860946;29;20050;-69
2021/10/20 09:48:29;;;;;;;16.00;3.80;;;;;;;22.57;40.71;99541.19;4859455;29;20042;-74
2021/10/20 09:51:21;;;;;;;17.15;3.45;;;;;;;22.58;40.72;99543.53;4860888;29;20061;-74
2021/10/20 09:53:51;;;;;;;12.70;3.65;;;;;;;22.55;40.85;99549.97;4859540;29;20064;-70
2021/10/20 09:56:21;;;;;;;8.30;3.08;;;;;;;22.59;40.92;99544.31;4858637;29;20029;-69
2021/10/20 09:58:49;;;;;;;11.57;3.08;;;;;;;22.53;40.91;99546.81;4860673;29;20021;-69
2021/10/20 10:01:17;;;;;;;15.88;4.10;;;;;;;22.50;41.00;99542.09;4855665;29;20037;-71
2021/10/20 10:03:43;;;;;;;18.00;3.85;;;;;;;22.61;40.85;99547.50;4860338;29;20401;-68
2021/10/20 10:06:09;;;;;;;14.05;3.78;;;;;;;22.66;40.51;99555.34;4860509;29;20033;-74
2021/10/20 10:08:34;;;;;;;10.55;3.20;;;;;;;22.75;40.49;99547.25;4860457;29;20036;-70
2021/10/20 10:11:00;;;;;;;12.52;4.40;;;;;;;22.81;40.53;99547.53;4860535;29;20025;-70
2021/10/20 10:13:30;;;;;;;17.65;4.75;;;;;;;22.61;40.75;99548.28;4860443;29;20054;-69
2021/10/20 10:15:59;;;;;;;15.88;3.17;;;;;;;22.70;40.57;99547.72;4857027;29;20112;-70
2021/10/20 10:18:26;;;;;;;17.23;3.67;;;;;;;22.64;40.30;99544.63;4860371;29;20060;-75
2021/10/20 10:20:52;;;;;;;14.52;4.07;;;;;;;22.68;40.36;99547.38;4860445;29;20029;-69
2021/10/20 10:23:20;;;;;;;10.98;3.17;;;;;;;22.76;40.25;99539.69;4860294;29;20045;-70
2021/10/20 10:25:46;;;;;;;16.55;3.53;;;;;;;22.74;40.23;99534.53;4860218;29;20037;-69
2021/10/20 10:28:17;;;;;;;11.52;3.58;;;;;;;22.77;40.33;99544.03;4860112;29;20033;-71
2021/10/20 10:30:49;;;;;;;14.63;3.13;;;;;;;22.83;40.33;99539.56;4860213;29;20408;-69
2021/10/20 10:33:22;;;;;;;14.18;3.63;;;;;;;22.97;40.37;99545.69;4853792;29;20422;-70
2021/10/20 10:36:03;;;;;;;15.40;3.85;;;;;;;23.09;39.90;99549.84;4860173;29;20029;-69
2021/10/20 10:38:44;;;;;;;17.88;4.70;;;;;;;23.04;40.38;99547.53;4857153;29;20156;-69
2021/10/20 10:41:23;;;;;;;13.65;3.58;;;;;;;23.21;40.22;99548.44;4856878;29;20092;-69
2021/10/20 10:44:04;;;;;;;14.15;3.50;;;;;;;22.98;41.22;99554.84;4860058;29;20064;-70
2021/10/20 10:46:53;;;;;;;11.35;4.13;;;;;;;23.38;40.41;99546.50;4856799;29;20481;-70
2021/10/20 10:49:27;;;;;;;11.63;4.30;;;;;;;23.67;40.43;99547.53;4855427;29;20086;-73
2021/10/20 10:52:20;;;;;;;16.80;3.85;;;;;;;23.42;40.37;99553.56;4860180;29;20116;-69
2021/10/20 10:55:13;;;;;;;14.85;5.95;;;;;;;23.41;40.26;99554.00;4856337;29;20041;-69
2021/10/20 10:57:45;;;;;;;11.70;2.97;;;;;;;23.50;39.94;99552.25;4857872;29;20022;-69
2021/10/20 11:00:32;;;;;;;17.98;4.68;;;;;;;23.35;40.28;99552.91;4859937;29;20101;-70
2021/10/20 11:03:09;;;;;;;13.50;3.50;;;;;;;23.64;39.63;99553.16;4857625;29;20037;-74
2021/10/20 11:05:36;;;;;;;16.23;3.60;;;;;;;23.73;39.13;99553.41;4854829;29;20029;-70
2021/10/20 11:08:03;;;;;;;11.23;2.65;;;;;;;23.43;39.91;99554.38;4858592;29;20097;-72
2021/10/20 11:10:29;;;;;;;11.30;3.60;;;;;;;23.55;39.36;99556.50;4860085;29;20041;-76
2021/10/20 11:12:56;;;;;;;9.55;3.55;;;;;;;23.63;39.24;99546.81;4857195;29;20022;-69
2021/10/20 11:15:24;;;;;;;18.77;4.38;;;;;;;23.50;39.25;99551.44;4859884;29;20036;-71
2021/10/20 11:17:50;;;;;;;13.32;3.67;;;;;;;23.59;38.83;99542.50;4859921;29;20033;-70
2021/10/20 11:20:18;;;;;;;14.45;3.35;;;;;;;23.67;38.42;99553.09;4859622;29;20420;-69
2021/10/20 11:22:50;;;;;;;12.73;3.60;;;;;;;23.72;38.41;99549.78;4859739;29;20028;-70
2021/10/20 11:25:17;;;;;;;12.13;3.25;;;;;;;23.67;38.66;99544.75;4856982;29;20503;-72
2021/10/20 11:27:51;;;;;;;16.38;3.75;;;;;;;23.78;38.07;99542.50;4859454;29;20030;-75
2021/10/20 11:30:19;;;;;;;15.15;3.05;;;;;;;23.85;38.02;99543.56;4857311;29;20034;-73
2021/10/20 11:32:46;;;;;;;10.95;2.83;;;;;;;23.79;38.02;99544.06;4859673;29;20540;-69
2021/10/20 11:35:20;;;;;;;12.18;3.55;;;;;;;24.11;37.23;99539.78;4859563;29;20064;-70
2021/10/20 11:38:01;;;;;;;10.95;2.60;;;;;;;24.18;36.70;99545.22;4859957;29;20053;-73
2021/10/20 11:40:37;;;;;;;10.50;2.30;;;;;;;24.00;36.43;99539.25;4853525;29;20481;-72
2021/10/20 11:43:11;;;;;;;10.52;1.90;;;;;;;23.99;36.00;99530.09;4855476;29;20037;-69
2021/10/20 11:45:36;;;;;;;12.55;3.28;;;;;;;24.01;34.99;99533.22;4859651;29;20078;-75
2021/10/20 11:48:04;;;;;;;6.43;1.50;;;;;;;24.03;34.67;99538.34;4862929;29;20561;-70
2021/10/20 11:50:32;;;;;;;5.65;2.00;;;;;;;23.90;34.25;99535.47;4862880;29;20492;-72
2021/10/20 11:53:06;;;;;;;6.20;2.20;;;;;;;23.66;34.35;99531.25;4862832;29;20096;-70
2021/10/20 11:55:32;;;;;;;12.88;3.25;;;;;;;23.89;33.37;99510.81;4853137;29;20026;-70
2021/10/20 11:57:58;;;;;;;11.43;2.38;;;;;;;24.00;33.54;99503.75;4867140;29;20037;-73
2021/10/20 12:00:24;;;;;;;9.68;3.47;;;;;;;24.14;33.76;99504.66;4853478;29;20029;-70
2021/10/20 12:02:49;;;;;;;5.72;1.90;;;;;;;24.13;33.76;99509.44;4854106;29;20469;-69
2021/10/20 12:05:16;;;;;;;10.00;3.25;;;;;;;24.18;34.19;99503.34;4862677;29;20044;-71
2021/10/20 12:07:49;;;;;;;15.05;3.00;;;;;;;24.34;32.80;99486.63;4862530;29;20074;-70
2021/10/20 12:10:18;;;;;;;11.60;2.85;;;;;;;24.37;33.32;99467.44;4862552;29;20029;-68
2021/10/20 12:12:45;;;;;;;11.95;3.67;;;;;;;24.41;33.04;99468.09;4862750;29;20366;-69
2021/10/20 12:15:20;;;;;;;10.45;2.65;;;;;;;24.50;32.96;99485.03;4862490;29;20636;-71
2021/10/20 12:17:48;;;;;;;13.75;2.58;;;;;;;24.72;32.37;99494.44;4861221;29;20032;-69
2021/10/20 12:20:16;;;;;;;10.45;2.78;;;;;;;24.60;32.66;99486.78;4862374;29;20038;-75
2021/10/20 12:22:41;;;;;;;9.38;2.78;;;;;;;24.69;32.86;99477.75;4862378;29;20033;-71
2021/10/20 12:25:08;;;;;;;11.25;2.88;;;;;;;24.85;32.37;99475.72;4862607;29;20025;-69
2021/10/20 12:27:40;;;;;;;9.77;2.85;;;;;;;24.89;31.20;99481.22;4862214;29;20081;-70
2021/10/20 12:30:07;;;;;;;9.93;3.05;;;;;;;24.63;31.99;99494.25;4861176;29;20022;-68
2021/10/20 12:32:36;;;;;;;7.03;2.30;;;;;;;24.66;31.18;99507.38;4862209;29;20077;-72
2021/10/20 12:35:08;;;;;;;14.15;2.38;;;;;;;24.46;30.91;99489.94;4862051;29;20025;-69
2021/10/20 12:37:45;;;;;;;12.00;2.72;;;;;;;24.40;30.99;99486.09;4862269;29;20397;-69
2021/10/20 12:40:16;;;;;;;11.25;2.65;;;;;;;24.13;31.13;99503.84;4860701;29;20061;-70
2021/10/20 12:42:52;;;;;;;8.95;2.42;;;;;;;24.30;30.88;99508.22;4862294;29;20047;-70
2021/10/20 12:45:20;;;;;;;11.20;2.75;;;;;;;24.17;30.52;99512.13;4856978;29;20040;-70
2021/10/20 12:47:49;;;;;;;10.00;2.47;;;;;;;24.12;30.97;99529.41;4861855;29;20564;-70
2021/10/20 12:50:17;;;;;;;6.68;2.35;;;;;;;24.02;30.99;99520.06;4861877;29;20463;-74
2021/10/20 12:52:45;;;;;;;11.95;2.35;;;;;;;24.17;30.65;99517.72;4861887;29;20037;-72
2021/10/20 12:55:13;;;;;;;9.70;2.65;;;;;;;24.26;30.72;99501.97;4861482;29;20461;-75
2021/10/20 12:57:41;;;;;;;9.02;2.13;;;;;;;24.35;31.04;99501.38;4859111;29;20037;-71
2021/10/20 13:00:10;;;;;;;7.40;1.95;;;;;;;24.57;30.58;99493.25;4861636;29;20025;-69
2021/10/20 13:02:37;;;;;;;13.45;2.50;;;;;;;24.57;31.21;99494.03;4859078;29;20041;-75
2021/10/20 13:05:06;;;;;;;15.10;3.22;;;;;;;24.54;30.80;99500.47;4861445;29;20048;-70
2021/10/20 13:07:31;;;;;;;10.87;3.07;;;;;;;24.58;31.25;99498.38;4861490;29;20039;-72
2021/10/20 13:09:57;;;;;;;6.35;2.70;;;;;;;24.82;30.88;99503.75;4861578;29;20116;-69
2021/10/20 13:12:22;;;;;;;19.10;3.08;;;;;;;24.80;31.28;99492.25;4861727;29;20150;-73
2021/10/20 13:14:48;;;;;;;10.55;2.65;;;;;;;24.78;31.10;99484.28;4861405;29;20472;-71
2021/10/20 13:17:13;;;;;;;12.35;2.40;;;;;;;24.57;31.24;99482.84;4861388;29;20048;-70
2021/10/20 13:19:39;;;;;;;8.88;2.60;;;;;;;24.94;30.49;99485.47;4861453;29;20032;-74
2021/10/20 13:22:06;;;;;;;10.48;2.38;;;;;;;25.16;30.19;99480.88;4859866;29;20039;-69
2021/10/20 13:24:32;;;;;;;9.98;2.42;;;;;;;25.31;30.31;99481.25;4875511;29;20448;-70
2021/10/20 13:26:57;;;;;;;13.63;3.00;;;;;;;24.97;30.34;99477.00;4861294;29;20025;-70
2021/10/20 13:29:23;;;;;;;12.43;3.47;;;;;;;25.15;30.08;99471.72;4861237;29;20045;-73
2021/10/20 13:31:49;;;;;;;10.57;3.33;;;;;;;24.90;29.63;99469.59;4861244;29;20061;-70
2021/10/20 13:34:14;;;;;;;12.88;3.40;;;;;;;24.93;30.05;99465.13;4861209;29;20030;-70
2021/10/20 13:36:40;;;;;;;8.85;2.22;;;;;;;25.12;29.70;99466.25;4861016;29;20028;-71
2021/10/20 13:39:08;;;;;;;12.13;2.30;;;;;;;24.99;29.72;99470.97;4861029;29;20026;-70
2021/10/20 13:41:33;;;;;;;11.98;2.63;;;;;;;25.37;29.54;99471.88;4861245;29;20112;-69
2021/10/20 13:43:59;;;;;;;8.13;2.08;;;;;;;25.07;29.17;99469.56;4860968;29;20137;-70
2021/10/20 13:46:24;;;;;;;8.63;2.42;;;;;;;25.30;29.00;99472.09;4860920;29;20052;-73
2021/10/20 13:48:50;;;;;;;9.95;2.75;;;;;;;25.28;29.17;99473.78;4860793;29;20384;-69
2021/10/20 13:51:16;;;;;;;14.52;3.45;;;;;;;25.43;27.92;99470.09;4860825;29;20400;-69
2021/10/20 13:53:41;;;;;;;12.32;2.47;;;;;;;25.51;28.14;99467.09;4860850;29;20049;-74
2021/10/20 13:56:07;;;;;;;11.20;2.50;;;;;;;25.61;28.49;99465.97;4859546;29;20034;-75
2021/10/20 13:58:33;;;;;;;9.27;2.90;;;;;;;25.75;28.51;99457.19;4860758;29;20033;-76
2021/10/20 14:00:58;;;;;;;8.40;3.63;;;;;;;25.84;28.34;99454.50;4860941;29;20017;-71
2021/10/20 14:03:24;;;;;;;5.13;2.05;;;;;;;25.66;28.46;99457.81;4860456;29;20064;-69
2021/10/20 14:05:49;;;;;;;8.10;2.00;;;;;;;25.68;28.34;99460.16;4860616;29;20026;-69
2021/10/20 14:08:15;;;;;;;5.40;1.60;;;;;;;25.63;28.18;99460.75;4860388;29;20036;-74
2021/10/20 14:10:41;;;;;;;18.23;2.92;;;;;;;25.56;28.42;99458.16;4860558;29;20062;-69
2021/10/20 14:13:06;;;;;;;10.10;2.10;;;;;;;25.74;28.07;99455.63;4860490;29;20053;-69
2021/10/20 14:15:32;;;;;;;15.63;4.50;;;;;;;25.42;28.87;99450.97;4860448;29;20037;-69
2021/10/20 14:17:57;;;;;;;10.27;2.15;;;;;;;25.37;28.82;99454.31;4860392;29;20033;-70
2021/10/20 14:20:23;;;;;;;8.10;2.47;;;;;;;25.40;28.81;99448.63;4859906;29;20084;-71
2021/10/20 14:22:49;;;;;;;12.23;2.10;;;;;;;25.27;28.98;99449.84;4859539;29;20489;-70
2021/10/20 14:25:15;;;;;;;9.25;2.67;;;;;;;25.06;28.96;99440.06;4860151;29;20106;-70
2021/10/20 14:27:40;;;;;;;8.90;3.47;;;;;;;25.19;29.24;99440.88;4859074;29;20086;-70
2021/10/20 14:30:08;;;;;;;15.88;3.45;;;;;;;25.32;29.18;99438.91;4860087;29;20041;-74
2021/10/20 14:32:34;;;;;;;11.75;2.90;;;;;;;25.09;29.17;99433.56;4860732;29;20366;-69
2021/10/20 14:35:02;;;;;;;9.75;3.05;;;;;;;25.11;28.75;99433.94;4860439;29;20085;-71
2021/10/20 14:37:27;;;;;;;11.00;2.45;;;;;;;25.25;28.40;99433.53;4860372;29;20040;-70
2021/10/20 14:39:53;;;;;;;12.07;2.60;;;;;;;25.13;28.36;99423.09;4860420;29;20038;-70
2021/10/20 14:42:20;;;;;;;9.00;2.72;;;;;;;25.34;27.96;99433.63;4860264;29;20045;-70
2021/10/20 14:44:46;;;;;;;9.02;1.83;;;;;;;25.36;27.92;99425.59;4860316;29;20119;-70
2021/10/20 14:47:13;;;;;;;10.07;2.38;;;;;;;25.33;27.71;99429.28;4859224;29;20053;-70
2021/10/20 14:49:39;;;;;;;8.25;2.20;;;;;;;25.29;27.51;99425.78;4858317;29;20041;-70
2021/10/20 14:52:05;;;;;;;6.78;2.80;;;;;;;25.07;27.80;99411.66;4858661;29;20073;-70
2021/10/20 14:54:31;;;;;;;9.00;1.95;;;;;;;24.81;27.60;99412.81;4858410;29;20481;-70
2021/10/20 14:56:57;;;;;;;9.68;2.33;;;;;;;24.86;27.85;99415.84;4858118;29;20036;-72
2021/10/20 14:59:22;;;;;;;7.28;1.95;;;;;;;25.10;27.55;99423.97;4873731;29;20029;-71
2021/10/20 15:01:48;;;;;;;9.85;1.90;;;;;;;25.02;28.02;99417.00;4859983;29;20037;-71
2021/10/20 15:04:16;;;;;;;13.80;3.50;;;;;;;25.13;27.96;99415.47;4859918;29;20050;-70
2021/10/20 15:06:43;;;;;;;12.18;2.65;;;;;;;25.10;28.19;99410.00;4860121;29;20033;-71
2021/10/20 15:09:09;;;;;;;11.50;3.15;;;;;;;25.19;28.07;99410.13;4859915;29;20033;-70
2021/10/20 15:11:35;;;;;;;16.35;8.32;;;;;;;25.17;28.00;99407.00;4859283;29;20037;-74
2021/10/20 15:14:00;;;;;;;12.65;2.80;;;;;;;25.23;27.99;99401.63;4860111;29;20088;-70
2021/10/20 15:16:26;;;;;;;8.07;2.83;;;;;;;25.13;28.45;99400.72;4860020;29;20036;-69
2021/10/20 15:18:56;;;;;;;11.32;2.00;;;;;;;25.01;28.19;99416.19;4858965;29;20034;-70
2021/10/20 15:21:25;;;;;;;12.13;2.17;;;;;;;24.77;27.95;99392.56;4861876;29;20029;-71
2021/10/20 15:23:51;;;;;;;10.82;1.85;;;;;;;24.87;27.86;99409.03;4862363;29;20021;-70
2021/10/20 15:26:17;;;;;;;12.13;2.70;;;;;;;24.84;27.87;99409.09;4863025;29;20025;-70
2021/10/20 15:28:43;;;;;;;14.07;3.53;;;;;;;25.05;27.39;99405.75;4862938;29;20414;-70
2021/10/20 15:31:17;;;;;;;10.38;2.70;;;;;;;25.03;27.70;99408.19;4861707;29;20029;-70